Latest Weather Observations for Mawson*

IDT60801

Issued at 8:31 pm EST Saturday 13 April 2024 (issued every 10 minutes, with the page automatically refreshed every 10 minutes)

About weather observations | Map of weather stations | Latest weather observations for ANT | Other Formats
Station Details ID: 300001 Name: MAWSON Lat: -67.60 Lon: 62.88 Height: 9.9 m
Data from the previous 72 hours. | See also: Recent months at Mawson*
Date/Time
EST
Temp
°C
App
Temp
°C
Dew
Point
°C
Rel
Hum
%
Delta-T
°C
Wind Press
QNH
hPa
Press
MSL
hPa
Rain since
9am
mm
Dir  Spd
km/h
Gust
km/h
Spd
kts
Gust
kts
13/08:00pm -10.8 -18.1 -24.2 32 - E 19 26 10 14 1006.5 1006.7 -
13/07:30pm -11.3 -19.9 -23.7 35 - SE 26 30 14 16 1006.1 1006.3 -
13/07:00pm -11.2 -19.1 -24.6 32 - ESE 22 28 12 15 1006.0 1006.2 -
13/06:30pm -11.0 -19.7 -24.7 31 - ESE 26 32 14 17 1006.1 1006.3 -
13/06:00pm -11.1 -16.9 -24.5 32 - E 11 17 6 9 1006.2 1006.4 -
13/05:30pm -11.7 -16.5 -22.0 42 - W 6 9 3 5 1006.8 1007.0 -
13/05:00pm -12.2 -16.3 -23.6 38 - ENE 2 9 1 5 1006.5 1006.7 -
13/04:30pm -12.7 -17.1 -21.6 47 - NNE 4 9 2 5 1006.4 1006.6 -
13/04:00pm -12.3 -18.9 -24.3 36 - S 15 22 8 12 1006.1 1006.3 -
13/03:30pm -12.7 -17.8 -25.2 34 - S 7 13 4 7 1006.3 1006.5 -
13/03:00pm -13.0 -17.5 -24.3 38 - SSW 4 9 2 5 1006.5 1006.7 -
13/02:30pm -11.7 -17.2 -26.9 27 - WSW 9 20 5 11 1006.1 1006.3 -
13/02:00pm -13.3 -18.4 -24.6 38 - W 7 11 4 6 1006.0 1006.2 -
13/01:30pm -13.8 -18.7 -25.6 36 - S 6 9 3 5 1006.1 1006.3 -
13/01:00pm -14.3 -19.8 -26.0 36 - S 9 22 5 12 1006.1 1006.3 -
13/12:30pm -14.3 -21.3 -26.7 34 - E 17 26 9 14 1006.0 1006.2 -
13/12:00pm -13.6 -20.2 -26.0 34 - ENE 15 22 8 12 1006.3 1006.5 -
13/11:30am -13.3 -18.8 -26.1 33 - SE 9 28 5 15 1006.1 1006.3 -
13/11:00am -14.3 -19.4 -25.7 37 - SE 7 13 4 7 1005.8 1006.0 -
13/10:30am -15.4 -23.7 -25.6 41 - SSE 24 30 13 16 1005.5 1005.7 -
13/10:00am -15.5 -20.6 -26.0 40 - SE 7 13 4 7 1005.9 1006.1 -
13/09:30am -15.5 -20.6 -26.0 40 - SE 7 11 4 6 1005.8 1006.0 -
13/09:00am -14.9 -21.1 -26.6 36 - S 13 20 7 11 1005.8 1006.0 -
13/08:30am -16.0 -25.1 -24.9 46 - SSE 28 35 15 19 1005.8 1006.0 -
13/08:00am -15.3 -27.2 -25.3 42 - SSE 43 50 23 27 1005.3 1005.5 -
13/07:51am -16.2 -26.6 -25.6 44 - SSE 35 50 19 27 1005.1 1005.3 -
13/07:30am -14.9 -23.6 -26.0 38 - S 26 32 14 17 1005.3 1005.5 -
13/07:00am -16.3 -26.3 -25.2 46 - SSE 33 41 18 22 1005.3 1005.5 -
13/06:30am -15.9 -27.8 -25.8 42 - SE 43 50 23 27 1005.2 1005.4 -
13/06:03am -15.6 -24.7 -27.5 35 - SE 28 46 15 25 1005.3 1005.5 -
13/06:00am -14.4 -22.0 -26.8 34 - SSE 20 37 11 20 1005.7 1005.9 -
13/05:30am -16.7 -26.5 -25.6 46 - SE 32 41 17 22 1005.6 1005.8 -
13/05:00am -15.9 -24.2 -25.8 42 - SE 24 33 13 18 1005.7 1005.9 -
13/04:30am -15.3 -21.5 -25.8 40 - S 13 20 7 11 1005.7 1005.9 -
13/04:00am -15.7 -21.9 -25.6 42 - SSW 13 20 7 11 1005.7 1005.9 -
13/03:30am -15.1 -23.0 -25.9 39 - SSW 22 41 12 22 1005.6 1005.8 -
13/03:16am -15.2 -25.2 -25.7 40 - S 33 43 18 23 1005.9 1006.1 -
13/03:00am -15.4 -26.2 -25.6 41 - SSE 37 44 20 24 1005.4 1005.6 -
13/02:56am -15.5 -25.9 -25.7 41 - SSE 35 44 19 24 1005.4 1005.6 -
13/02:30am -15.2 -22.8 -26.0 39 - SSE 20 35 11 19 1005.7 1005.9 -
13/02:00am -14.7 -21.3 -26.4 36 - SSW 15 26 8 14 1006.2 1006.4 -
13/01:30am -16.3 -21.3 -23.6 53 - SSE 7 9 4 5 1006.0 1006.2 -
13/01:00am -15.7 -21.6 -26.4 39 - SSW 11 13 6 7 1005.6 1005.8 -
13/12:30am -15.8 -21.6 -24.5 47 - S 11 15 6 8 1005.9 1006.1 -
13/12:00am -17.0 -21.9 -24.9 50 - SSE 6 7 3 4 1006.2 1006.4 -
 
Date/Time
EST
Temp
°C
App
Temp
°C
Dew
Point
°C
Rel
Hum
%
Delta-T
°C
Wind Press
QNH
hPa
Press
MSL
hPa
Rain since
9am
mm
Dir  Spd
km/h
Gust
km/h
Spd
kts
Gust
kts
12/11:30pm -16.6 -20.7 -25.0 48 - S 2 6 1 3 1005.5 1005.7 -
12/11:00pm -16.4 -21.5 -25.3 46 - SSE 7 13 4 7 1005.5 1005.7 -
12/10:30pm -16.5 -20.6 -24.2 51 - SSE 2 7 1 4 1005.6 1005.8 -
12/10:00pm -15.4 -19.9 -24.4 46 - SSE 4 7 2 4 1005.5 1005.7 -
12/09:30pm -15.0 -21.2 -24.5 44 - SW 13 17 7 9 1005.2 1005.4 -
12/09:00pm -14.7 -20.9 -24.0 45 - SSW 13 17 7 9 1005.8 1006.0 -
12/08:30pm -14.7 -20.5 -24.0 45 - SSW 11 17 6 9 1005.9 1006.1 -
12/08:00pm -16.2 -22.4 -23.3 54 - S 13 22 7 12 1006.2 1006.4 -
12/07:30pm -15.4 -21.5 -22.8 53 - S 13 17 7 9 1006.3 1006.5 -
12/07:00pm -16.1 -22.6 -22.8 56 - S 15 19 8 10 1006.5 1006.7 -
12/06:30pm -15.7 -22.6 -23.1 53 - S 17 19 9 10 1006.2 1006.4 -
12/06:00pm -16.1 -22.7 -23.9 51 - SSW 15 20 8 11 1006.5 1006.7 -
12/05:30pm -16.6 -23.9 -24.3 51 - S 19 22 10 12 1006.8 1007.0 -
12/05:00pm -16.7 -24.0 -24.2 52 - S 19 24 10 13 1006.8 1007.0 -
12/04:30pm -17.2 -23.4 -25.1 50 - S 13 19 7 10 1007.3 1007.5 -
12/04:00pm -17.2 -22.7 -26.0 46 - SW 9 13 5 7 1007.5 1007.7 -
12/03:30pm -16.7 -21.6 -26.3 43 - SW 6 11 3 6 1007.3 1007.5 -
12/03:00pm -17.0 -21.5 -26.6 43 - WSW 4 9 2 5 1007.2 1007.4 -
12/02:30pm -16.6 -22.5 -27.0 40 - SW 11 13 6 7 1007.4 1007.6 -
12/02:00pm -16.3 -22.1 -24.7 48 - SW 11 15 6 8 1007.5 1007.7 -
12/01:30pm -16.8 -21.9 -25.2 48 - WSW 7 13 4 7 1007.6 1007.8 -
12/01:00pm -17.9 -24.9 -26.9 45 - WSW 17 20 9 11 1007.4 1007.6 -
12/12:30pm -16.7 -22.2 -27.1 40 - S 9 13 5 7 1007.2 1007.4 -
12/12:00pm -17.4 -22.3 -26.0 47 - S 6 7 3 4 1007.5 1007.7 -
12/11:30am -17.1 -22.6 -27.2 41 - SSW 9 13 5 7 1007.3 1007.5 -
12/11:00am -17.3 -22.2 -26.8 43 - S 6 11 3 6 1007.5 1007.7 -
12/10:30am -18.4 -23.5 -26.4 49 - SSW 7 9 4 5 1007.8 1008.0 -
12/10:00am -17.7 -23.2 -26.7 45 - SSW 9 11 5 6 1008.0 1008.2 -
12/09:30am -16.9 -24.5 -26.2 44 - SW 20 26 11 14 1007.9 1008.1 -
12/09:00am -17.7 -22.6 -28.0 40 - SSE 6 13 3 7 1007.8 1008.0 -
12/08:30am -16.9 -23.5 -26.7 42 - SSW 15 20 8 11 1008.1 1008.3 -
12/08:12am -16.2 -28.2 -29.0 32 - S 43 61 23 33 1007.6 1007.8 -
12/08:00am -17.0 -29.2 -30.4 30 - SSE 44 54 24 29 1007.4 1007.6 -
12/07:44am -17.5 -26.7 -31.5 28 - SSE 28 57 15 31 1007.0 1007.2 -
12/07:30am -18.4 -27.6 -31.0 32 - SE 28 41 15 22 1007.4 1007.6 -
12/07:25am -17.6 -26.3 -28.7 37 - SE 26 35 14 19 1007.5 1007.7 -
12/07:09am -18.5 -29.8 -30.7 33 - SE 39 54 21 29 1007.4 1007.6 -
12/07:00am -18.3 -29.2 -29.9 35 - ESE 37 46 20 25 1007.5 1007.7 -
12/06:37am -18.9 -29.4 -29.6 38 - SE 35 56 19 30 1007.4 1007.6 -
12/06:30am -18.2 -28.7 -28.7 39 - SE 35 50 19 27 1007.6 1007.8 -
12/06:00am -18.7 -31.3 -29.7 37 - SE 46 59 25 32 1007.5 1007.7 -
12/05:30am -16.9 -29.5 -30.3 30 - SE 46 57 25 31 1007.3 1007.5 -
12/05:17am -17.5 -28.7 -28.3 38 - SE 39 65 21 35 1007.5 1007.7 -
12/05:15am -17.8 -27.9 -29.2 36 - SE 33 52 18 28 1007.5 1007.7 -
12/05:00am -18.2 -28.3 -28.4 40 - SE 33 44 18 24 1007.3 1007.5 -
12/04:53am -17.7 -28.9 -29.4 35 - SSE 39 48 21 26 1007.6 1007.8 -
12/04:30am -19.3 -32.2 -29.4 40 - SSE 48 57 26 31 1007.2 1007.4 -
12/04:00am -18.8 -33.3 -30.1 36 - S 56 65 30 35 1007.2 1007.4 -
12/03:30am -18.5 -31.8 -30.4 34 - SSE 50 61 27 33 1007.1 1007.3 -
12/03:26am -18.4 -31.7 -30.6 33 - SSE 50 61 27 33 1007.3 1007.5 -
12/03:00am -18.0 -28.1 -29.1 37 - SSE 33 43 18 23 1007.4 1007.6 -
12/02:30am -17.1 -27.6 -28.9 35 - SSE 35 50 19 27 1007.4 1007.6 -
12/02:00am -17.9 -29.5 -29.0 37 - SSE 41 52 22 28 1007.3 1007.5 -
12/01:53am -18.2 -28.1 -29.3 37 - SSE 32 52 17 28 1007.3 1007.5 -
12/01:30am -17.7 -26.0 -27.0 44 - SSE 24 30 13 16 1007.7 1007.9 -
12/01:00am -17.9 -28.0 -28.2 40 - SSE 33 43 18 23 1007.5 1007.7 -
12/12:30am -17.7 -26.4 -28.0 40 - SSE 26 35 14 19 1007.6 1007.8 -
12/12:00am -18.2 -28.1 -27.7 43 - SSE 32 39 17 21 1007.5 1007.7 -
 
Date/Time
EST
Temp
°C
App
Temp
°C
Dew
Point
°C
Rel
Hum
%
Delta-T
°C
Wind Press
QNH
hPa
Press
MSL
hPa
Rain since
9am
mm
Dir  Spd
km/h
Gust
km/h
Spd
kts
Gust
kts
11/11:30pm -17.5 -25.8 -26.5 45 - SSE 24 28 13 15 1007.6 1007.8 -
11/11:00pm -17.2 -26.7 -27.5 40 - SSE 30 37 16 20 1007.5 1007.7 -
11/10:30pm -17.1 -27.5 -26.9 42 - SSE 35 43 19 23 1007.6 1007.8 -
11/10:15pm -16.9 -26.0 -27.3 40 - SSE 28 43 15 23 1007.6 1007.8 -
11/10:00pm -16.6 -24.2 -25.9 44 - SSE 20 22 11 12 1007.7 1007.9 -
11/09:30pm -16.0 -21.5 -25.4 44 - SSE 9 13 5 7 1007.7 1007.9 -
11/09:00pm -16.1 -24.0 -25.0 46 - SSE 22 35 12 19 1007.6 1007.8 -
11/08:46pm -16.0 -24.3 -26.7 39 - S 24 43 13 23 1007.4 1007.6 -
11/08:30pm -16.0 -23.3 -24.9 46 - SSE 19 24 10 13 1007.5 1007.7 -
11/08:00pm -15.9 -23.8 -25.6 43 - SSE 22 26 12 14 1007.6 1007.8 -
11/07:30pm -15.6 -23.5 -26.6 38 - S 22 35 12 19 1007.4 1007.6 -
11/07:00pm -16.2 -25.7 -27.2 38 - SSE 30 41 16 22 1006.9 1007.1 -
11/06:57pm -15.9 -24.6 -27.5 36 - SE 26 39 14 21 1006.9 1007.1 -
11/06:30pm -15.6 -22.6 -26.3 39 - ESE 17 20 9 11 1006.9 1007.1 -
11/06:00pm -16.4 -23.4 -26.8 40 - SSE 17 30 9 16 1007.0 1007.2 -
11/05:30pm -17.4 -26.9 -27.4 41 - S 30 37 16 20 1007.0 1007.2 -
11/05:00pm -17.6 -28.0 -27.9 40 - SSE 35 43 19 23 1006.5 1006.7 -
11/04:30pm -17.7 -28.5 -28.2 39 - SSE 37 46 20 25 1006.4 1006.6 -
11/04:12pm -17.4 -26.9 -30.4 31 - SSE 30 52 16 28 1006.6 1006.8 -
11/04:10pm -16.3 -25.4 -29.8 30 - SSE 28 43 15 23 1006.5 1006.7 -
11/04:00pm -16.6 -23.3 -29.0 33 - SE 15 24 8 13 1006.5 1006.7 -
11/03:30pm -16.5 -22.0 -28.3 35 - SSE 9 17 5 9 1006.4 1006.6 -
11/03:00pm -16.4 -22.7 -29.2 32 - SSW 13 22 7 12 1005.8 1006.0 -
11/02:30pm -16.4 -21.4 -29.2 32 - SSW 6 13 3 7 1005.5 1005.7 -
11/02:00pm -17.2 -23.5 -29.9 32 - S 13 24 7 13 1005.0 1005.2 -
11/01:30pm -18.0 -23.9 -28.8 38 - SSE 11 24 6 13 1004.6 1004.8 -
11/01:00pm -18.6 -23.6 -28.8 40 - SW 6 11 3 6 1004.6 1004.8 -
11/12:30pm -19.1 -27.9 -29.5 39 - SSE 26 32 14 17 1003.8 1004.0 -
11/12:00pm -18.9 -30.1 -30.5 35 - SSE 39 52 21 28 1003.4 1003.6 -
11/11:58am -18.8 -30.8 -30.4 35 - SSE 43 59 23 32 1003.5 1003.7 -
11/11:30am -20.6 -35.1 -30.6 40 - SSE 56 65 30 35 1002.5 1002.7 -
11/11:00am -20.8 -35.3 -31.1 39 - SSE 56 65 30 35 1002.0 1002.2 -
11/10:30am -20.7 -34.4 -30.4 41 - SSE 52 63 28 34 1001.6 1001.8 -
11/10:00am -20.7 -34.4 -30.2 42 - SSE 52 57 28 31 1001.1 1001.3 -
11/09:30am -20.5 -33.4 -29.8 43 - SSE 48 52 26 28 1000.9 1001.1 -
11/09:00am -20.9 -34.2 -30.1 43 - SSE 50 54 27 29 1000.4 1000.6 -
11/08:30am -20.9 -35.0 -30.1 43 - SSE 54 59 29 32 999.9 1000.1 -
11/08:00am -20.6 -34.7 -30.1 42 - SSE 54 61 29 33 999.4 999.6 -
11/07:30am -20.8 -35.3 -30.0 43 - SSE 56 63 30 34 999.0 999.2 -
11/07:00am -21.1 -34.8 -30.1 44 - SSE 52 61 28 33 998.2 998.4 -
11/06:30am -20.2 -32.8 -30.0 41 - SSE 46 54 25 29 997.8 998.0 -
11/06:00am -20.5 -34.6 -29.8 43 - SSE 54 65 29 35 997.2 997.4 -
11/05:30am -20.5 -35.2 -30.0 42 - S 57 65 31 35 996.5 996.7 -
11/05:00am -20.4 -35.1 -29.9 42 - SSE 57 67 31 36 995.9 996.1 -
11/04:30am -20.4 -35.1 -29.9 42 - SSE 57 65 31 35 995.1 995.3 -
11/04:00am -20.1 -33.4 -29.4 43 - SSE 50 61 27 33 994.7 994.9 -
11/03:30am -20.3 -34.0 -29.6 43 - SSE 52 59 28 32 994.0 994.2 -
11/03:00am -20.0 -33.3 -29.3 43 - SSE 50 59 27 32 993.4 993.6 -
11/02:30am -19.7 -32.6 -28.8 44 - SSE 48 54 26 29 992.8 993.0 -
11/02:00am -19.7 -33.0 -29.0 43 - SSE 50 57 27 31 992.2 992.4 -
11/01:30am -19.3 -32.2 -28.7 43 - SSE 48 54 26 29 991.7 991.9 -
11/01:00am -19.0 -31.2 -28.4 43 - SSE 44 50 24 27 990.9 991.1 -

Other formats

Comma delimited format used in spreadsheet applications
http://www.bom.gov.au/fwo/IDT60803/IDT60803.89564.axf

JavaScript Object Notation format (JSON) in row-major order
http://www.bom.gov.au/fwo/IDT60803/IDT60803.89564.json

Data quality

Most of these data are generated automatically and are frequently updated. Quality checks on data are not normally performed. It is possible for incorrect values to appear. Refer to information at About Latest Weather Observations and please check the disclaimer before using these data.